createdAt,value
2022-09-20T00:01:10.772Z,82.00
2022-09-20T00:11:18.178Z,94.00
2022-09-20T00:21:23.345Z,86.00
2022-09-20T00:31:30.569Z,84.00
2022-09-20T00:41:36.071Z,86.00
2022-09-20T00:51:42.440Z,84.00
2022-09-20T01:01:49.665Z,80.00
2022-09-20T01:11:56.621Z,82.00
2022-09-20T01:22:03.726Z,80.00
2022-09-20T01:32:10.702Z,84.00
2022-09-20T01:42:18.285Z,84.00
2022-09-20T01:52:25.400Z,92.00
2022-09-20T02:02:30.654Z,94.00
2022-09-20T02:12:37.846Z,94.00
2022-09-20T02:22:43.316Z,86.00
2022-09-20T02:32:50.432Z,94.00
2022-09-20T02:42:56.165Z,84.00
2022-09-20T02:53:04.289Z,80.00
2022-09-20T03:03:11.732Z,82.00
2022-09-20T03:13:18.854Z,84.00
2022-09-20T03:23:24.290Z,94.00
2022-09-20T03:33:31.475Z,82.00
2022-09-20T03:43:38.665Z,80.00
2022-09-20T03:53:45.718Z,94.00
2022-09-20T04:03:50.970Z,92.00
2022-09-20T04:13:57.994Z,94.00
2022-09-20T04:24:03.681Z,94.00
2022-09-20T04:34:10.857Z,86.00
2022-09-20T04:44:16.136Z,94.00
2022-09-20T04:54:23.044Z,86.00
2022-09-20T05:04:28.406Z,86.00
2022-09-20T05:14:35.461Z,94.00
2022-09-20T05:24:40.550Z,94.00
2022-09-20T05:34:47.243Z,84.00
2022-09-20T05:44:54.057Z,84.00
2022-09-20T05:55:01.028Z,94.00
2022-09-20T06:05:06.255Z,96.00
2022-09-20T06:15:13.150Z,94.00
2022-09-20T06:25:18.824Z,94.00
2022-09-20T06:35:25.525Z,82.00
2022-09-20T06:45:32.583Z,80.00
2022-09-20T06:55:39.716Z,84.00
2022-09-20T07:05:46.353Z,82.00
2022-09-20T07:15:51.703Z,82.00
2022-09-20T07:25:57.030Z,82.00
2022-09-20T07:36:02.773Z,78.00
2022-09-20T07:46:08.462Z,80.00
2022-09-20T07:56:14.159Z,82.00
2022-09-20T08:06:19.613Z,84.00
2022-09-20T08:16:25.200Z,80.00
2022-09-20T08:26:30.186Z,78.00
2022-09-20T08:36:37.005Z,74.00
2022-09-20T08:46:43.105Z,76.00
2022-09-20T08:56:48.921Z,74.00
2022-09-20T09:06:54.787Z,76.00
2022-09-20T09:17:00.671Z,76.00
2022-09-20T09:27:06.611Z,78.00
2022-09-20T09:37:12.043Z,82.00
2022-09-20T09:47:17.592Z,82.00
2022-09-20T09:57:22.988Z,82.00
2022-09-20T10:07:28.657Z,82.00
2022-09-20T10:17:34.237Z,82.00
2022-09-20T10:27:39.925Z,84.00
2022-09-20T10:37:49.176Z,84.00
2022-09-20T10:47:54.922Z,82.00
2022-09-20T10:58:00.580Z,78.00
2022-09-20T11:08:05.860Z,78.00
2022-09-20T11:18:11.722Z,78.00
2022-09-20T11:28:17.396Z,78.00
2022-09-20T11:38:22.684Z,78.00
2022-09-20T11:48:27.972Z,78.00
2022-09-20T11:59:53.299Z,86.00
2022-09-20T12:09:58.837Z,80.00
2022-09-20T12:20:04.201Z,86.00
2022-09-20T12:30:10.348Z,76.00
2022-09-20T12:40:15.800Z,78.00
2022-09-20T12:50:21.984Z,82.00
2022-09-20T13:00:27.143Z,78.00
2022-09-20T13:10:34.479Z,76.00
2022-09-20T13:20:39.571Z,80.00
2022-09-20T13:30:44.826Z,80.00
2022-09-20T13:40:50.820Z,80.00
2022-09-20T13:50:55.939Z,76.00
2022-09-20T14:01:01.560Z,82.00
2022-09-20T14:11:06.885Z,84.00
2022-09-20T14:21:12.583Z,84.00
2022-09-20T14:31:19.426Z,76.00
2022-09-20T14:41:25.487Z,80.00
2022-09-20T14:51:31.363Z,80.00
2022-09-20T15:01:36.693Z,80.00
2022-09-20T15:11:41.578Z,80.00
2022-09-20T15:21:46.952Z,88.00
2022-09-20T15:31:52.224Z,92.00
2022-09-20T15:41:57.518Z,86.00
2022-09-20T15:52:02.679Z,86.00
2022-09-20T16:02:07.980Z,86.00
2022-09-20T16:12:13.541Z,86.00
2022-09-20T16:22:18.969Z,84.00
2022-09-20T16:32:24.158Z,92.00
2022-09-20T16:42:29.183Z,88.00
2022-09-20T16:52:35.054Z,86.00
2022-09-20T17:02:44.596Z,84.00
2022-09-20T17:12:51.511Z,86.00
2022-09-20T17:22:57.448Z,86.00
2022-09-20T17:33:02.846Z,86.00
2022-09-20T17:43:07.868Z,88.00
2022-09-20T17:53:13.445Z,88.00
2022-09-20T18:03:18.965Z,88.00
2022-09-20T18:13:24.659Z,88.00
2022-09-20T18:23:30.165Z,86.00
2022-09-20T18:33:35.953Z,88.00
2022-09-20T18:43:41.029Z,88.00
2022-09-20T18:53:46.796Z,90.00
2022-09-20T19:03:52.284Z,88.00
2022-09-20T19:13:59.163Z,92.00
2022-09-20T19:24:06.389Z,92.00
2022-09-20T19:34:13.194Z,90.00
2022-09-20T19:44:19.996Z,92.00
2022-09-20T19:54:27.304Z,88.00
2022-09-20T20:04:34.327Z,90.00
2022-09-20T20:14:41.647Z,88.00
2022-09-20T20:24:47.917Z,88.00
2022-09-20T20:34:54.338Z,88.00
2022-09-20T20:45:01.202Z,88.00
2022-09-20T20:55:07.563Z,88.00
2022-09-20T21:05:14.227Z,88.00
2022-09-20T21:15:20.742Z,88.00
2022-09-20T21:25:27.535Z,88.00
2022-09-20T21:35:34.021Z,88.00
2022-09-20T21:45:40.506Z,88.00
2022-09-20T21:55:47.242Z,88.00
2022-09-20T22:05:53.932Z,88.00
2022-09-20T22:16:01.217Z,86.00
2022-09-20T22:26:08.602Z,88.00
2022-09-20T22:36:14.073Z,84.00
2022-09-20T22:46:21.404Z,84.00
2022-09-20T22:56:27.275Z,84.00
2022-09-20T23:06:33.805Z,88.00
2022-09-20T23:16:39.370Z,86.00
2022-09-20T23:26:46.677Z,88.00
2022-09-20T23:36:51.759Z,88.00
2022-09-20T23:46:58.866Z,84.00
2022-09-20T23:57:04.148Z,84.00
